Latest Coastal Weather Observations for Cape Grim

IDT60701

Issued at 4:22 pm EDT Friday 27 March 2015 (issued every 10 minutes, with the page automatically refreshed every 10 minutes)

About coastal observations | Map of coastal stations | Coastal observations for TAS | Marine services | Other Formats
Station Details ID: 091331 Name: CAPE GRIM Lat: -40.68 Lon: 144.69 Height: 86.0 m
Data from the previous 72 hours. | See also: Recent months at Cape Grim
Date/Time
EDT
Temp

°C
Wind Pressure Rain
since 9am
mm
Weather Cloud Vis
km
Sea
Height
m
Swell
Dir
 
Speed
knots
Gust
knots
hPa Trend Height
m
Period
s
Dir
27/04:00pm 13.4 SW 30 38 1019.7 - 0.4 - Partly cloudy - - - - -
27/03:51pm 13.5 SW 30 36 1019.7 - 0.4 - Partly cloudy - - - - -
27/03:30pm 13.3 SW 29 35 1019.7 - 0.4 - Partly cloudy - - - - -
27/03:25pm 13.1 SW 28 35 1019.7 - 0.4 - Partly cloudy - - - - -
27/03:00pm 12.9 SW 29 38 1019.4 - 0.4 - Cloudy - - - - -
27/02:30pm 13.5 SW 29 38 1019.4 - 0.4 - Partly cloudy - - - - -
27/02:05pm 13.3 SW 26 37 1019.3 - 0.4 - Partly cloudy - - - - -
27/02:00pm 13.3 SW 26 35 1019.3 - 0.4 - Partly cloudy - - - - -
27/01:33pm 13.6 SW 29 40 1019.3 - 0.4 - Partly cloudy - - - - -
27/01:30pm 13.3 SW 29 36 1019.2 - 0.4 - Partly cloudy - - - - -
27/01:06pm 13.2 SW 32 42 1019.1 - 0.4 - Partly cloudy - - - - -
27/01:04pm 13.1 SW 32 42 1019.1 - 0.4 - Partly cloudy - - - - -
27/01:00pm 13.4 SW 32 38 1019.1 - 0.4 - Partly cloudy - - - - -
27/12:31pm 13.3 SW 32 42 1019.0 - 0.4 - Partly cloudy - - - - -
27/12:30pm 13.1 SW 33 42 1019.0 - 0.4 - Partly cloudy - - - - -
27/12:09pm 12.8 SW 34 45 1018.8 - 0.4 - Partly cloudy - - - - -
27/12:00pm 12.9 SW 35 43 1018.7 - 0.4 Recent precip. Cloudy - - - - -
27/11:37am 12.7 SW 35 43 1018.5 - 0.4 - Partly cloudy - - - - -
27/11:32am 12.9 SW 34 43 1018.4 - 0.2 - Partly cloudy - - - - -
27/11:30am 13.3 SW 34 43 1018.4 - 0.2 - Partly cloudy - - - - -
27/11:21am 13.1 SW 34 44 1018.3 - 0.2 - Partly cloudy - - - - -
27/11:18am 13.1 SW 34 44 1018.1 - 0.2 - Partly cloudy - - - - -
27/11:14am 12.9 SW 35 44 1018.3 - 0.2 - Partly cloudy - - - - -
27/11:00am 12.7 SW 37 45 1017.9 - 0.2 - Partly cloudy - - - - -
27/10:30am 13.1 SW 35 44 1017.5 - 0.0 - Partly cloudy - - - - -
27/10:25am 13.1 SW 37 47 1017.5 - 0.0 - Partly cloudy - - - - -
27/10:11am 12.9 SW 37 46 1017.2 - 0.0 - Partly cloudy - - - - -
27/10:00am 12.8 SW 37 47 1017.0 - 0.0 - Partly cloudy - - - - -
27/09:42am 12.8 SW 35 45 1016.7 - 0.0 - Partly cloudy - - - - -
27/09:32am 12.8 SW 35 46 1016.7 - 0.0 - Partly cloudy - - - - -
27/09:30am 12.9 SW 35 44 1016.7 - 0.0 - Partly cloudy - - - - -
27/09:17am 12.9 SW 34 45 1016.5 - 0.0 - Partly cloudy - - - - -
27/09:14am 12.7 SW 34 43 1016.5 - 0.0 - Partly cloudy - - - - -
27/09:00am 12.7 SW 35 44 1016.2 - 17.2 Recent precip. Cloudy - - - - -
27/08:39am 12.6 SW 28 42 1015.7 - 17.2 - Partly cloudy - - - - -
27/08:36am 12.5 SW 25 41 1015.8 - 16.8 - Partly cloudy - - - - -
27/08:35am 12.2 SW 25 34 1016.0 - 16.8 - Partly cloudy - - - - -
27/08:30am 11.9 SW 27 33 1015.9 - 16.8 - Partly cloudy - - - - -
27/08:00am 13.0 SW 30 36 1015.5 - 16.2 - Partly cloudy - - - - -
27/07:45am 13.5 SW 27 37 1015.3 - 16.2 - Partly cloudy - - - - -
27/07:30am 13.3 SW 28 36 1015.0 - 16.2 - Partly cloudy - - - - -
27/07:00am 12.9 SW 29 35 1014.4 - 16.2 - Partly cloudy - - - - -
27/06:30am 12.7 SW 25 36 1014.0 - 16.2 - Partly cloudy - - - - -
27/06:04am 12.7 SW 24 34 1013.7 - 16.2 - Partly cloudy - - - - -
27/06:00am 12.7 SW 23 31 1013.6 - 16.2 - Cloudy - - - - -
27/05:30am 11.8 SSW 24 35 1013.0 - 16.2 - - - - - - -
27/05:00am 11.7 SSW 29 40 1012.1 - 16.2 - Partly cloudy - - - - -
27/04:30am 12.3 SW 33 46 1011.3 - 16.0 - Partly cloudy - - - - -
27/04:10am 12.3 SW 42 55 1010.6 - 16.0 - Partly cloudy - - - - -
27/04:00am 12.3 SW 45 55 1010.4 - 16.0 - Partly cloudy - - - - -
27/03:30am 12.9 SW 43 55 1009.8 - 16.0 - Partly cloudy - - - - -
27/03:22am 12.7 SW 37 53 1009.8 - 16.0 - Partly cloudy - - - - -
27/03:00am 12.4 WSW 31 53 1009.9 - 15.8 Recent precip. Cloudy - - - - -
27/02:40am 12.9 SW 35 53 1010.2 - 15.6 - Partly cloudy - - - - -
27/02:30am 12.7 SW 34 51 1010.6 - 15.6 - Partly cloudy - - - - -
27/02:26am 12.2 SW 32 51 1010.7 - 15.6 - Partly cloudy - - - - -
27/02:24am 12.1 WSW 30 50 1010.6 - 15.6 - Partly cloudy - - - - -
27/02:23am 12.2 WSW 28 44 1010.7 - 15.6 - Partly cloudy - - - - -
27/02:00am 12.6 WSW 23 37 1011.0 - 15.0 - Partly cloudy - - - - -
27/01:30am 12.1 W 18 32 1011.9 - 14.8 - Partly cloudy - - - - -
27/01:00am 11.3 SW 24 34 1012.6 - 14.4 - Partly cloudy - - - - -
27/12:56am 11.1 SW 23 34 1012.6 - 14.2 - Partly cloudy - - - - -
27/12:54am 11.5 SW 24 32 1012.7 - 14.2 - Partly cloudy - - - - -
27/12:30am 11.3 SW 31 37 1012.7 - 14.2 - Partly cloudy - - - - -
27/12:11am 11.3 SW 28 38 1012.6 - 14.2 - Partly cloudy - - - - -
 
Date/Time
EDT
Temp

°C
Wind Pressure Rain
since 9am
mm
Weather Cloud Vis
km
Sea
Height
m
Swell
Dir
 
Speed
knots
Gust
knots
hPa Trend Height
m
Period
s
Dir
26/11:30pm 11.5 SW 27 38 1012.5 - 14.0 - Partly cloudy - - - - -
26/11:05pm 12.0 SW 15 30 1012.3 - 13.6 - Partly cloudy - - - - -
26/11:00pm 12.0 SW 15 22 1012.5 - 13.6 - Partly cloudy - - - - -
26/10:41pm 11.6 SW 15 28 1012.4 - 13.4 - Partly cloudy - - - - -
26/10:30pm 11.4 SSW 11 20 1012.4 - 13.2 - Partly cloudy - - - - -
26/10:00pm 11.9 SSW 9 12 1012.1 - 12.0 - - - - - - -
26/09:30pm 11.2 SSW 9 13 1011.7 - 12.0 - Partly cloudy - - - - -
26/09:00pm 11.5 S 9 12 1011.5 - 11.8 - - - - - - -
26/08:30pm 11.3 S 11 15 1011.2 - 11.8 - - - - - - -
26/08:00pm 10.3 S 11 14 1010.7 - 11.8 - - - - - - -
26/07:30pm 10.4 SSE 12 16 1010.2 - 11.8 - - - - - - -
26/07:00pm 10.7 SSE 12 15 1009.8 - 11.8 - - - - - - -
26/06:30pm 10.8 SSE 11 14 1009.4 - 11.8 - Partly cloudy - - - - -
26/06:00pm 10.8 ESE 10 16 1008.9 - 11.6 Rain Cloudy - - - - -
26/05:30pm 10.3 NE 9 12 1009.1 - 8.6 - Partly cloudy - - - - -
26/05:00pm 10.7 NE 13 15 1009.3 - 3.8 - Partly cloudy - - - - -
26/04:30pm 10.4 N 19 22 1009.2 - 1.0 - Partly cloudy - - - - -
26/04:00pm 11.5 N 22 25 1009.2 - 0.4 - Partly cloudy - - - - -
26/03:30pm 12.2 N 23 29 1009.3 - 0.4 - Partly cloudy - - - - -
26/03:05pm 12.2 N 19 29 1009.7 - 0.4 - Partly cloudy - - - - -
26/03:00pm 12.6 N 20 27 1010.0 - 0.4 Recent precip. Cloudy - - - - -
26/02:30pm 12.8 NNW 23 30 1010.3 - 0.4 - Partly cloudy - - - - -
26/02:12pm 13.8 NNW 20 31 1010.3 - 0.0 - Partly cloudy - - - - -
26/02:00pm 13.3 NNW 21 27 1010.6 - 0.0 - Partly cloudy - - - - -
26/01:30pm 14.8 NNW 18 22 1010.9 - 0.0 - Partly cloudy - - - - -
26/01:00pm 15.1 NNW 17 20 1011.2 - 0.0 - Partly cloudy - - - - -
26/12:30pm 14.7 NNW 17 21 1011.4 - 0.0 - - - - - - -
26/12:00pm 14.6 NNW 19 25 1011.5 - 0.0 - Cloudy - - - - -
26/11:46am 14.0 NW 18 28 1011.6 - 0.0 - Partly cloudy - - - - -
26/11:30am 14.2 NW 19 23 1011.7 - 0.0 - Partly cloudy - - - - -
26/11:00am 14.7 NW 17 22 1011.6 - 0.0 - Partly cloudy - - - - -
26/10:30am 14.2 NW 17 23 1011.5 - 0.0 - Partly cloudy - - - - -
26/10:00am 13.9 NW 14 19 1011.5 - 0.0 - Partly cloudy - - - - -
26/09:30am 13.2 WNW 17 22 1011.4 - 0.0 - Partly cloudy - - - - -
26/09:00am 12.4 WNW 17 23 1011.2 - - - Cloudy - - - - -
26/08:30am 12.9 WNW 11 14 1011.1 - - - Partly cloudy - - - - -
26/08:00am 12.2 WNW 13 16 1010.8 - - - Partly cloudy - - - - -
26/07:30am 12.1 WNW 14 17 1010.5 - - - Partly cloudy - - - - -
26/07:06am 12.3 W 16 26 1010.4 - - - Partly cloudy - - - - -
26/07:00am 12.1 W 17 26 1010.3 - - - Partly cloudy - - - - -
26/06:30am 12.1 WNW 19 26 1010.2 - - - Partly cloudy - - - - -
26/06:00am 11.7 WNW 21 26 1009.8 - - Recent precip. Mostly cloudy - - - - -
26/05:30am 11.9 W 21 30 1009.6 - - - Partly cloudy - - - - -
26/05:22am 11.8 WNW 22 28 1009.7 - - - Partly cloudy - - - - -
26/05:10am 10.8 NW 15 25 1009.7 - - - Partly cloudy - - - - -
26/05:00am 10.4 WNW 14 20 1009.7 - - - Partly cloudy - - - - -
26/04:52am 10.2 NW 20 31 1010.0 - - - Partly cloudy - - - - -
26/04:47am 11.1 N 19 31 1009.9 - - - Partly cloudy - - - - -
26/04:46am 11.2 N 18 30 1010.0 - - - Partly cloudy - - - - -
26/04:30am 11.0 N 16 20 1009.7 - - - Partly cloudy - - - - -
26/04:00am 10.8 N 13 17 1010.1 - - - Partly cloudy - - - - -
26/03:30am 10.4 N 11 15 1010.5 - - - Partly cloudy - - - - -
26/03:00am 10.0 N 13 16 1010.8 - 9.0 Recent precip. Cloudy - - - - -
26/02:30am 9.9 NNW 14 20 1011.1 - - - Partly cloudy - - - - -
26/02:19am 10.0 NW 18 25 1011.6 - - - Partly cloudy - - - - -
26/02:00am 9.8 WNW 21 29 1011.7 - - - Partly cloudy - - - - -
26/01:30am 10.1 WNW 23 31 1012.0 - - - Partly cloudy - - - - -
26/01:12am 10.1 WNW 27 34 1011.7 - - - Partly cloudy - - - - -
26/01:00am 9.5 W 25 38 1011.3 - - - Partly cloudy - - - - -
26/12:58am 9.8 W 24 38 1011.3 - - - Partly cloudy - - - - -
26/12:55am 10.6 W 21 31 1011.4 - - - Partly cloudy - - - - -
26/12:48am 10.8 W 22 29 1011.3 - - - Partly cloudy - - - - -
26/12:30am 11.6 WNW 26 39 1010.8 - - - Partly cloudy - - - - -
26/12:24am 12.5 NNE 27 39 1010.7 - - - Partly cloudy - - - - -
26/12:23am 13.1 NNE 27 39 1010.9 - - - Partly cloudy - - - - -
26/12:19am 14.7 NE 25 35 1010.0 - - - Partly cloudy - - - - -
26/12:00am 14.5 NE 24 30 1010.3 - - - Cloudy - - - - -
 
Date/Time
EDT
Temp

°C
Wind Pressure Rain
since 9am
mm
Weather Cloud Vis
km
Sea
Height
m
Swell
Dir
 
Speed
knots
Gust
knots
hPa Trend Height
m
Period
s
Dir
25/11:30pm 14.3 NE 24 31 1010.8 - - - Cloudy - - - - -
25/11:00pm 14.1 NE 21 25 1011.0 - - - Cloudy - - - - -
25/10:30pm 14.0 NE 20 24 1011.3 - - - Cloudy - - - - -
25/10:00pm 13.3 NE 17 19 1011.6 - - - Cloudy - - - - -
25/09:30pm 12.4 NE 13 15 1012.1 - - - Partly cloudy - - - - -
25/09:00pm 13.3 NNE 17 20 1012.4 - - - Partly cloudy - - - - -
25/08:30pm 13.3 N 16 21 1012.4 - - - Partly cloudy - - - - -
25/08:00pm 13.5 N 17 21 1012.4 - - - Partly cloudy - - - - -
25/07:30pm 13.3 N 17 20 1012.1 - - - - - - - - -
25/07:00pm 13.7 N 17 20 1012.3 - - - - - - - - -
25/06:30pm 14.4 N 17 19 1012.3 - - - - - - - - -
25/06:00pm 14.7 N 17 21 1012.3 - - - Mostly clear - - - - -
25/05:30pm 15.0 N 17 22 1012.5 - - - Partly cloudy - - - - -
25/05:00pm 15.4 N 18 22 1012.6 - - - Partly cloudy - - - - -
25/04:30pm 15.2 N 17 21 1012.9 - - - Partly cloudy - - - - -
25/04:00pm 14.3 NNW 13 19 1013.1 - - - Partly cloudy - - - - -
25/03:30pm 14.3 NW 16 21 1013.4 - - - - - - - - -

Other Formats:

Comma delimited format used in spreadsheet applications
http://www.bom.gov.au/fwo/IDT60701/IDT60701.95954.axf

JavaScript Object Notation format (JSON) in row-major order
http://www.bom.gov.au/fwo/IDT60701/IDT60701.95954.json